Time;durP1;ratioP1;P1;durP2;ratioP2;P2;SDS_P1;SDS_P2;PMS_P1;PMS_P2;Temp;Humidity;BMP_temperature;BMP_pressure;BME280_temperature;BME280_humidity;BME280_pressure;Samples;Min_cycle;Max_cycle;Signal;HPM_P1;HPM_P2
2022/04/16 00:02:44;;;;;;;18.27;9.70;;;11.10;99.90;;;;;;4991008;28;20230;-60
2022/04/16 00:05:11;;;;;;;18.73;10.00;;;11.00;99.90;;;;;;4990933;28;20258;-61
2022/04/16 00:07:36;;;;;;;19.03;9.57;;;11.00;99.90;;;;;;4990477;28;20314;-61
2022/04/16 00:10:03;;;;;;;15.60;9.17;;;11.00;99.90;;;;;;4990848;28;20673;-60
2022/04/16 00:12:28;;;;;;;14.97;8.97;;;11.00;99.90;;;;;;4990776;28;20175;-60
2022/04/16 00:14:55;;;;;;;14.60;9.27;;;11.00;99.90;;;;;;4990817;28;20175;-60
2022/04/16 00:17:21;;;;;;;17.07;9.23;;;10.90;99.90;;;;;;4990888;28;20330;-60
2022/04/16 00:19:49;;;;;;;20.37;9.20;;;11.00;99.90;;;;;;4990410;28;20207;-60
2022/04/16 00:22:15;;;;;;;18.23;9.40;;;11.00;99.90;;;;;;4990718;28;20168;-60
2022/04/16 00:24:42;;;;;;;19.07;9.93;;;10.90;99.90;;;;;;4990703;28;20710;-60
2022/04/16 00:27:10;;;;;;;19.23;9.87;;;10.50;99.90;;;;;;4990556;28;20250;-59
2022/04/16 00:29:36;;;;;;;16.90;9.07;;;10.90;99.90;;;;;;4990523;28;20171;-59
2022/04/16 00:32:06;;;;;;;18.50;9.23;;;10.90;99.90;;;;;;4990480;28;20327;-59
2022/04/16 00:34:32;;;;;;;15.17;8.40;;;10.90;99.90;;;;;;4990417;28;20178;-59
2022/04/16 00:37:00;;;;;;;16.37;8.43;;;10.90;99.90;;;;;;4989246;28;20163;-59
2022/04/16 00:39:29;;;;;;;14.67;8.40;;;10.90;99.90;;;;;;4990263;28;20709;-59
2022/04/16 00:41:54;;;;;;;16.37;8.37;;;10.80;99.90;;;;;;4990292;28;20594;-60
2022/04/16 00:44:20;;;;;;;18.50;8.27;;;10.80;99.90;;;;;;4990243;28;20179;-60
2022/04/16 00:46:47;;;;;;;13.43;8.17;;;10.80;99.90;;;;;;4993576;28;20186;-59
2022/04/16 00:49:14;;;;;;;17.10;8.67;;;10.80;99.90;;;;;;4993944;28;20175;-59
2022/04/16 00:51:43;;;;;;;13.77;8.50;;;10.80;99.90;;;;;;4539448;23;22122;-58
2022/04/16 00:54:12;;;;;;;16.60;9.03;;;10.70;99.90;;;;;;5020938;23;20709;-58
2022/04/16 00:56:38;;;;;;;17.67;8.63;;;10.60;99.90;;;;;;5013388;28;20221;-59
2022/04/16 00:59:04;;;;;;;13.80;7.93;;;10.70;99.90;;;;;;5013394;28;20318;-58
2022/04/16 01:01:31;;;;;;;17.70;8.47;;;10.60;99.90;;;;;;5013445;28;20170;-58
2022/04/16 01:03:57;;;;;;;15.80;8.17;;;10.50;99.90;;;;;;5013171;28;20330;-58
2022/04/16 01:06:23;;;;;;;18.00;7.57;;;10.50;99.90;;;;;;5013178;28;20664;-58
2022/04/16 01:08:49;;;;;;;17.90;8.17;;;10.40;99.90;;;;;;5013315;28;20175;-58
2022/04/16 01:11:15;;;;;;;13.97;8.30;;;10.40;99.90;;;;;;5013322;28;20174;-58
2022/04/16 01:13:46;;;;;;;16.97;7.73;;;10.40;99.90;;;;;;5013411;28;20174;-58
2022/04/16 01:16:12;;;;;;;16.03;8.63;;;10.40;99.90;;;;;;5013175;28;20679;-58
2022/04/16 01:18:47;;;;;;;19.70;8.97;;;10.40;99.90;;;;;;5013041;28;20186;-58
2022/04/16 01:21:15;;;;;;;16.20;9.10;;;10.40;99.90;;;;;;5013027;28;20199;-58
2022/04/16 01:23:41;;;;;;;17.67;8.60;;;10.40;99.90;;;;;;5013079;28;20169;-58
2022/04/16 01:26:07;;;;;;;16.73;9.20;;;10.40;99.90;;;;;;5012761;28;20265;-58
2022/04/16 01:28:43;;;;;;;15.47;9.30;;;10.40;99.90;;;;;;5012752;28;20178;-58
2022/04/16 01:31:09;;;;;;;16.33;9.20;;;10.30;99.90;;;;;;5012609;28;20170;-58
2022/04/16 01:33:35;;;;;;;15.90;9.17;;;10.30;99.90;;;;;;5012978;28;20654;-58
2022/04/16 01:36:01;;;;;;;17.30;9.17;;;10.30;99.90;;;;;;5012592;28;20175;-58
2022/04/16 01:38:27;;;;;;;14.27;8.77;;;10.30;99.90;;;;;;5012705;28;20656;-58
2022/04/16 01:40:56;;;;;;;16.13;8.87;;;10.40;99.90;;;;;;5012545;28;20285;-58
2022/04/16 01:43:23;;;;;;;16.87;9.00;;;10.30;99.90;;;;;;5012478;28;20266;-59
2022/04/16 01:45:50;;;;;;;15.90;8.97;;;10.30;99.90;;;;;;5012314;28;20171;-59
2022/04/16 01:48:19;;;;;;;14.40;8.60;;;10.30;99.90;;;;;;5012624;28;20237;-59
2022/04/16 01:50:54;;;;;;;14.93;8.60;;;10.30;99.90;;;;;;5012605;28;20656;-60
2022/04/16 01:53:21;;;;;;;13.33;7.63;;;10.30;99.90;;;;;;5012354;28;20214;-59
2022/04/16 01:55:48;;;;;;;12.60;7.53;;;10.20;99.90;;;;;;5012061;28;20628;-59
2022/04/16 01:58:14;;;;;;;15.83;7.80;;;10.20;99.90;;;;;;5012243;28;20171;-59
2022/04/16 02:00:40;;;;;;;14.43;7.97;;;10.10;99.90;;;;;;5012187;28;20213;-59
2022/04/16 02:03:07;;;;;;;16.17;8.07;;;10.10;99.90;;;;;;5012312;28;20167;-59
2022/04/16 02:05:33;;;;;;;12.87;7.80;;;10.10;99.90;;;;;;5012120;28;20561;-59
2022/04/16 02:08:00;;;;;;;14.27;7.80;;;10.00;99.90;;;;;;5010692;28;20699;-59
2022/04/16 02:10:26;;;;;;;13.50;7.07;;;10.00;99.90;;;;;;5011980;28;20630;-59
2022/04/16 02:12:52;;;;;;;13.97;7.17;;;9.90;99.90;;;;;;5012088;28;20270;-59
2022/04/16 02:15:17;;;;;;;13.40;6.60;;;10.00;99.90;;;;;;5012238;28;20700;-59
2022/04/16 02:17:43;;;;;;;12.93;7.23;;;9.90;99.90;;;;;;5012300;28;20343;-59
2022/04/16 02:20:10;;;;;;;19.20;7.17;;;9.90;99.90;;;;;;5011790;28;20246;-59
2022/04/16 02:22:43;;;;;;;13.00;6.90;;;9.80;99.90;;;;;;5011953;28;20194;-59
2022/04/16 02:25:11;;;;;;;17.20;7.30;;;9.80;99.90;;;;;;5011909;28;20194;-59
2022/04/16 02:27:37;;;;;;;15.43;7.37;;;9.80;99.90;;;;;;5011505;28;20258;-59
2022/04/16 02:30:10;;;;;;;12.43;7.40;;;9.70;99.90;;;;;;5011845;28;20210;-59
2022/04/16 02:32:38;;;;;;;14.63;7.60;;;9.80;99.90;;;;;;5011591;28;20246;-59
2022/04/16 02:35:06;;;;;;;13.97;7.23;;;9.70;99.90;;;;;;5011731;28;20209;-59
2022/04/16 02:37:32;;;;;;;12.63;7.03;;;10.30;99.90;;;;;;5011759;28;20209;-58
2022/04/16 02:39:57;;;;;;;12.90;7.10;;;9.50;99.90;;;;;;5011534;28;20234;-59
2022/04/16 02:42:23;;;;;;;14.87;7.33;;;9.50;99.90;;;;;;5011622;28;20211;-59
2022/04/16 02:47:33;;;;;;;13.00;7.70;;;9.50;99.90;;;;;;5011608;28;20489;-59
2022/04/16 02:49:59;;;;;;;14.30;7.47;;;9.50;99.90;;;;;;5011230;28;20657;-59
2022/04/16 02:52:28;;;;;;;15.40;7.83;;;9.50;99.90;;;;;;5011205;28;20222;-59
2022/04/16 02:54:53;;;;;;;12.50;6.80;;;9.50;99.90;;;;;;5011361;28;20171;-59
2022/04/16 02:57:19;;;;;;;13.03;6.70;;;9.50;99.90;;;;;;5011580;28;20171;-59
2022/04/16 02:59:46;;;;;;;15.37;6.60;;;9.50;99.90;;;;;;5011371;28;20337;-59
2022/04/16 03:02:13;;;;;;;10.43;6.57;;;9.20;99.90;;;;;;5011416;28;20182;-58
2022/04/16 03:04:39;;;;;;;16.70;7.63;;;9.40;99.90;;;;;;5011320;28;20183;-59
2022/04/16 03:07:05;;;;;;;15.67;8.00;;;9.40;99.90;;;;;;5011240;28;20194;-58
2022/04/16 03:09:31;;;;;;;15.37;7.97;;;9.40;99.90;;;;;;5010422;28;20818;-58
2022/04/16 03:11:58;;;;;;;17.30;7.53;;;9.40;99.90;;;;;;5011410;28;20648;-59
2022/04/16 03:19:52;;;;;;;14.60;7.83;;;9.70;99.90;;;;;;5010339;28;20261;-62
2022/04/16 03:22:18;;;;;;;12.77;7.13;;;9.70;99.90;;;;;;5011042;28;20657;-59
2022/04/16 03:24:44;;;;;;;12.80;7.50;;;9.70;99.90;;;;;;5010948;28;20233;-59
2022/04/16 03:27:09;;;;;;;11.73;7.10;;;10.20;99.90;;;;;;5010745;28;20170;-59
2022/04/16 03:29:35;;;;;;;10.43;6.90;;;9.70;99.90;;;;;;5009375;28;20225;-59
2022/04/16 03:32:01;;;;;;;14.37;7.07;;;9.70;99.90;;;;;;5010823;28;20175;-59
2022/04/16 03:34:27;;;;;;;15.90;8.13;;;9.70;99.90;;;;;;5010701;28;20221;-59
2022/04/16 03:36:53;;;;;;;11.60;7.03;;;9.70;99.90;;;;;;5010782;28;20264;-58
2022/04/16 03:39:20;;;;;;;13.40;7.47;;;9.70;99.90;;;;;;5010648;28;20206;-59
2022/04/16 03:41:47;;;;;;;13.47;7.50;;;9.70;99.90;;;;;;5010703;28;20261;-59
2022/04/16 03:44:13;;;;;;;14.97;7.40;;;9.60;99.90;;;;;;5010682;28;20241;-59
2022/04/16 03:46:39;;;;;;;12.33;7.50;;;9.70;99.90;;;;;;5010390;28;20170;-59
2022/04/16 03:49:04;;;;;;;14.57;7.50;;;9.70;99.90;;;;;;5010870;28;20640;-59
2022/04/16 03:51:30;;;;;;;11.30;7.57;;;9.60;99.90;;;;;;5010469;28;20636;-59
2022/04/16 03:59:59;;;;;;;14.97;7.17;;;9.60;99.90;;;;;;5010271;28;20593;-59
2022/04/16 04:02:10;;;;;;;14.03;7.60;;;9.40;99.90;;;;;;5010797;28;20582;-58
2022/04/16 04:04:35;;;;;;;15.03;7.50;;;9.50;99.90;;;;;;5010345;28;20194;-59
2022/04/16 04:07:01;;;;;;;16.10;7.60;;;9.50;99.90;;;;;;5010504;28;20537;-59
2022/04/16 04:09:27;;;;;;;15.67;7.90;;;9.50;99.90;;;;;;5010390;28;20657;-59
2022/04/16 04:11:53;;;;;;;15.77;8.87;;;9.50;99.90;;;;;;5010318;28;20178;-59
2022/04/16 04:14:19;;;;;;;15.97;8.67;;;9.50;99.90;;;;;;5010429;28;20182;-59
2022/04/16 04:16:45;;;;;;;12.03;7.50;;;9.50;99.90;;;;;;5010644;28;20538;-59
2022/04/16 04:19:10;;;;;;;13.43;7.17;;;9.60;99.90;;;;;;5010362;28;20684;-58
2022/04/16 04:21:36;;;;;;;18.23;7.93;;;9.60;99.90;;;;;;5013632;28;20240;-59
2022/04/16 04:24:02;;;;;;;14.13;7.23;;;9.50;99.90;;;;;;5014102;28;20245;-59
2022/04/16 04:26:28;;;;;;;14.10;7.60;;;9.40;99.90;;;;;;5014023;28;20187;-59
2022/04/16 04:28:54;;;;;;;16.97;7.80;;;9.50;99.90;;;;;;5013899;28;20228;-59
2022/04/16 04:31:20;;;;;;;16.00;8.87;;;9.50;99.90;;;;;;5013798;28;20269;-58
2022/04/16 04:33:46;;;;;;;13.40;8.00;;;9.50;99.90;;;;;;5012555;28;20269;-59
2022/04/16 04:36:11;;;;;;;12.83;7.27;;;9.50;99.90;;;;;;5014059;28;20163;-58
2022/04/16 04:38:38;;;;;;;11.80;7.60;;;9.50;99.90;;;;;;5013646;28;20462;-59
2022/04/16 04:41:04;;;;;;;17.77;7.73;;;9.50;99.90;;;;;;5013599;28;20305;-58
2022/04/16 04:43:30;;;;;;;17.53;8.80;;;9.40;99.90;;;;;;5013694;28;20167;-58
2022/04/16 04:45:56;;;;;;;16.17;8.27;;;9.40;99.90;;;;;;5013803;28;20653;-58
2022/04/16 04:48:21;;;;;;;14.87;7.83;;;9.40;99.90;;;;;;5014020;28;20175;-58
2022/04/16 04:50:47;;;;;;;21.07;8.63;;;9.30;99.90;;;;;;5013843;28;20612;-58
2022/04/16 04:53:13;;;;;;;14.73;8.47;;;9.30;99.90;;;;;;5013542;28;20284;-58
2022/04/16 04:55:39;;;;;;;15.47;9.17;;;9.40;99.90;;;;;;5013682;28;20174;-59
2022/04/16 04:58:05;;;;;;;18.07;9.77;;;9.40;99.90;;;;;;5013427;28;20236;-58
2022/04/16 05:00:30;;;;;;;18.87;10.93;;;9.50;99.90;;;;;;5013371;28;20214;-59
2022/04/16 05:02:56;;;;;;;21.20;11.67;;;9.60;99.90;;;;;;5013524;28;20189;-59
2022/04/16 05:05:22;;;;;;;21.73;12.60;;;9.70;99.90;;;;;;5013478;28;20378;-59
2022/04/16 05:07:48;;;;;;;24.53;13.83;;;9.80;99.90;;;;;;5013209;28;20172;-59
2022/04/16 05:10:13;;;;;;;23.93;13.47;;;9.90;99.90;;;;;;5012230;28;20219;-59
2022/04/16 05:12:39;;;;;;;25.37;13.20;;;10.00;99.90;;;;;;5013321;28;20298;-59
2022/04/16 05:15:12;;;;;;;21.83;14.00;;;10.00;99.90;;;;;;5013264;28;20193;-58
2022/04/16 05:17:40;;;;;;;26.43;13.57;;;10.10;99.90;;;;;;5013368;28;20179;-59
2022/04/16 05:20:07;;;;;;;21.83;14.37;;;10.10;99.90;;;;;;5013106;28;20230;-59
2022/04/16 05:22:33;;;;;;;24.73;13.50;;;10.10;99.90;;;;;;5012998;28;20179;-58
2022/04/16 05:24:59;;;;;;;22.07;13.57;;;10.10;99.90;;;;;;5013327;28;20608;-58
2022/04/16 05:27:25;;;;;;;23.60;13.83;;;10.20;99.90;;;;;;5012945;28;20668;-58
2022/04/16 05:30:04;;;;;;;22.97;13.43;;;10.30;99.90;;;;;;5012843;28;20189;-58
2022/04/16 05:32:35;;;;;;;22.37;13.53;;;10.30;99.90;;;;;;5010909;28;20192;-60
2022/04/16 05:35:01;;;;;;;21.93;12.57;;;10.30;99.90;;;;;;5012651;28;20668;-61
2022/04/16 05:37:27;;;;;;;21.43;13.30;;;10.30;99.90;;;;;;5012685;28;20167;-58
2022/04/16 05:39:53;;;;;;;18.97;12.60;;;10.20;99.90;;;;;;5012696;28;20289;-58
2022/04/16 05:42:19;;;;;;;21.93;11.83;;;10.10;99.90;;;;;;5012823;28;20644;-58
2022/04/16 05:44:45;;;;;;;19.83;12.43;;;10.20;99.90;;;;;;5012771;28;20178;-58
2022/04/16 05:47:35;;;;;;;21.17;13.00;;;10.20;99.90;;;;;;5012548;28;20166;-59
2022/04/16 05:50:01;;;;;;;22.47;11.93;;;10.30;99.90;;;;;;5012424;28;20261;-59
2022/04/16 05:52:27;;;;;;;25.00;11.60;;;10.30;99.90;;;;;;5012445;28;20245;-59
2022/04/16 05:54:54;;;;;;;18.97;11.73;;;10.20;99.90;;;;;;5012643;28;20217;-58
2022/04/16 05:57:22;;;;;;;23.13;12.77;;;10.30;99.90;;;;;;5012262;28;20183;-59
2022/04/16 05:59:49;;;;;;;18.50;12.17;;;10.30;99.90;;;;;;5012520;28;20198;-59
2022/04/16 06:02:15;;;;;;;20.83;12.80;;;10.30;99.90;;;;;;5012295;28;20213;-59
2022/04/16 06:04:40;;;;;;;22.00;12.40;;;10.30;99.90;;;;;;5012194;28;20178;-59
2022/04/16 06:07:06;;;;;;;20.47;12.90;;;10.30;99.90;;;;;;5012336;28;20177;-59
2022/04/16 06:09:32;;;;;;;19.63;12.10;;;10.40;99.90;;;;;;5012007;28;20183;-59
2022/04/16 06:12:03;;;;;;;22.27;13.43;;;10.50;99.90;;;;;;5012067;28;20174;-59
2022/04/16 06:14:30;;;;;;;23.40;12.80;;;10.70;99.90;;;;;;5012011;28;20174;-59
2022/04/16 06:16:55;;;;;;;21.10;13.23;;;10.80;99.90;;;;;;5012144;28;20173;-59
2022/04/16 06:19:21;;;;;;;20.90;12.97;;;10.90;99.90;;;;;;5011766;28;20206;-59
2022/04/16 06:21:47;;;;;;;19.97;12.07;;;11.00;99.90;;;;;;5010475;28;20562;-59
2022/04/16 06:24:13;;;;;;;16.37;11.90;;;11.10;99.90;;;;;;5011974;28;20170;-61
2022/04/16 06:26:38;;;;;;;21.63;12.80;;;11.10;99.90;;;;;;5011912;28;20669;-59
2022/04/16 06:29:04;;;;;;;22.30;13.50;;;11.20;99.90;;;;;;5011630;28;20178;-59
2022/04/16 06:31:30;;;;;;;23.60;13.63;;;11.40;99.90;;;;;;5011658;28;20186;-60
2022/04/16 06:33:56;;;;;;;23.40;14.40;;;11.50;99.90;;;;;;5011788;28;20178;-59
2022/04/16 06:36:21;;;;;;;25.17;14.35;;;11.50;99.90;;;;;;5011883;28;20533;-59
2022/04/16 06:38:47;;;;;;;22.77;14.67;;;11.60;99.90;;;;;;5011572;28;20182;-59
2022/04/16 06:41:14;;;;;;;24.83;15.50;;;11.70;99.90;;;;;;5011829;28;20284;-58
2022/04/16 06:43:40;;;;;;;24.73;15.50;;;11.90;99.90;;;;;;5010775;28;20736;-59
2022/04/16 06:46:05;;;;;;;22.88;16.27;;;12.00;99.90;;;;;;5011475;28;20325;-59
2022/04/16 06:48:31;;;;;;;25.57;15.90;;;11.90;99.90;;;;;;5011422;28;20265;-58
2022/04/16 06:50:57;;;;;;;27.02;17.38;;;11.90;99.90;;;;;;5011428;28;20315;-58
2022/04/16 06:53:26;;;;;;;26.37;15.63;;;11.90;99.90;;;;;;5011261;28;20711;-59
2022/04/16 06:55:52;;;;;;;26.50;17.00;;;12.00;99.90;;;;;;5011245;28;20185;-57
2022/04/16 06:58:18;;;;;;;31.45;16.48;;;12.10;99.90;;;;;;5011318;28;20166;-59
2022/04/16 07:00:44;;;;;;;28.80;17.23;;;12.30;99.90;;;;;;5011631;28;20214;-60
2022/04/16 07:03:10;;;;;;;27.80;16.47;;;12.30;99.90;;;;;;5011303;28;20175;-57
2022/04/16 07:05:35;;;;;;;29.97;17.90;;;12.30;99.90;;;;;;5011241;28;20242;-59
2022/04/16 07:08:01;;;;;;;28.98;18.38;;;12.40;99.90;;;;;;5011027;28;20228;-59
2022/04/16 07:10:27;;;;;;;30.87;18.00;;;12.40;99.90;;;;;;5011024;28;20174;-59
2022/04/16 07:12:53;;;;;;;30.53;18.80;;;12.60;99.90;;;;;;5011021;28;20170;-59
2022/04/16 07:15:19;;;;;;;30.13;17.87;;;12.70;99.90;;;;;;5009969;28;20274;-59
2022/04/16 07:17:45;;;;;;;30.53;19.57;;;12.60;99.90;;;;;;5011076;28;20171;-59
2022/04/16 07:20:11;;;;;;;31.03;19.17;;;12.30;99.90;;;;;;5010835;28;20249;-59
2022/04/16 07:22:37;;;;;;;34.07;19.10;;;12.30;99.90;;;;;;5010906;28;20250;-59
2022/04/16 07:25:05;;;;;;;33.00;20.10;;;12.40;99.90;;;;;;5010841;28;20240;-59
2022/04/16 07:27:32;;;;;;;29.10;19.43;;;12.60;99.90;;;;;;5010642;28;20553;-59
2022/04/16 07:29:58;;;;;;;33.37;19.60;;;12.60;99.90;;;;;;5010786;28;20175;-59
2022/04/16 07:32:26;;;;;;;38.50;20.13;;;12.50;99.90;;;;;;5010828;28;20175;-58
2022/04/16 07:34:52;;;;;;;28.00;18.50;;;12.80;99.90;;;;;;5010621;28;20173;-58
2022/04/16 07:37:17;;;;;;;32.80;18.73;;;12.80;99.90;;;;;;5010800;28;20175;-58
2022/04/16 07:39:43;;;;;;;31.95;18.50;;;12.90;99.90;;;;;;5010623;28;20587;-58
2022/04/16 07:42:09;;;;;;;31.58;19.70;;;12.90;99.90;;;;;;5010877;28;20290;-58
2022/04/16 07:44:35;;;;;;;33.22;18.25;;;13.10;99.90;;;;;;5010481;28;20210;-58
2022/04/16 07:47:01;;;;;;;28.48;19.30;;;13.30;99.90;;;;;;5010624;28;20167;-58
2022/04/16 07:49:27;;;;;;;28.52;19.50;;;13.40;99.90;;;;;;5010424;28;20193;-58
2022/04/16 07:51:53;;;;;;;30.20;18.70;;;13.40;99.90;;;;;;5010403;28;20514;-59
2022/04/16 07:54:19;;;;;;;34.03;19.60;;;13.70;99.90;;;;;;5011612;28;20221;-60
2022/04/16 07:56:45;;;;;;;30.30;19.33;;;13.80;99.90;;;;;;5014539;28;20173;-59
2022/04/16 07:59:12;;;;;;;28.95;19.40;;;14.60;99.90;;;;;;5014324;28;20178;-58
2022/04/16 08:01:38;;;;;;;35.08;20.67;;;14.30;99.90;;;;;;5014745;28;20236;-58
2022/04/16 08:04:04;;;;;;;31.88;20.70;;;14.50;99.90;;;;;;5014588;28;20641;-58
2022/04/16 08:06:30;;;;;;;29.75;19.83;;;14.50;99.90;;;;;;5014590;28;20174;-58
2022/04/16 08:09:00;;;;;;;32.03;20.95;;;14.40;99.90;;;;;;5014269;28;20174;-58
2022/04/16 08:11:35;;;;;;;31.60;19.55;;;14.80;99.90;;;;;;5014410;28;20200;-58
2022/04/16 08:14:01;;;;;;;34.10;21.88;;;14.90;99.90;;;;;;5014210;28;20601;-58
2022/04/16 08:16:28;;;;;;;32.85;21.90;;;15.20;99.90;;;;;;5014125;28;20170;-58
2022/04/16 08:18:53;;;;;;;34.08;22.38;;;15.20;99.90;;;;;;5014172;28;20175;-58
2022/04/16 08:21:20;;;;;;;32.20;21.50;;;15.00;99.90;;;;;;5013973;28;20743;-58
2022/04/16 08:23:56;;;;;;;33.50;21.48;;;15.50;99.90;;;;;;5014090;28;20171;-59
2022/04/16 08:26:25;;;;;;;33.97;20.73;;;15.10;99.90;;;;;;5014071;28;20182;-59
2022/04/16 08:28:51;;;;;;;33.60;21.55;;;16.30;99.90;;;;;;5014092;28;20163;-59
2022/04/16 08:31:17;;;;;;;32.22;20.33;;;16.30;99.90;;;;;;5014358;28;20171;-59
2022/04/16 08:33:42;;;;;;;32.78;21.23;;;16.40;99.90;;;;;;5014135;28;20621;-61
2022/04/16 08:36:08;;;;;;;29.40;21.05;;;17.20;99.90;;;;;;5013970;28;20166;-59
2022/04/16 08:38:34;;;;;;;31.52;20.80;;;16.80;99.90;;;;;;5013736;28;20252;-58
2022/04/16 08:41:01;;;;;;;31.15;21.30;;;17.50;99.90;;;;;;5013653;28;20214;-58
2022/04/16 08:43:28;;;;;;;36.28;23.13;;;16.80;99.90;;;;;;5014005;28;20178;-58
2022/04/16 08:45:55;;;;;;;31.73;21.83;;;16.40;99.90;;;;;;5013743;28;20202;-58
2022/04/16 08:48:21;;;;;;;34.28;21.67;;;17.40;99.90;;;;;;5013486;28;20162;-58
2022/04/16 08:50:48;;;;;;;31.95;21.52;;;18.80;99.90;;;;;;5013678;28;20812;-58
2022/04/16 08:53:15;;;;;;;32.92;23.58;;;18.80;99.90;;;;;;5013739;28;20226;-58
2022/04/16 08:55:41;;;;;;;34.38;24.42;;;18.30;99.90;;;;;;5013626;28;20167;-58
2022/04/16 08:58:07;;;;;;;37.92;23.95;;;17.90;99.90;;;;;;5013585;28;20247;-58
2022/04/16 09:00:33;;;;;;;33.00;22.95;;;20.10;99.90;;;;;;5013483;28;20214;-58
2022/04/16 09:03:03;;;;;;;37.70;24.17;;;19.50;99.90;;;;;;5013457;28;20544;-59
2022/04/16 09:05:29;;;;;;;42.45;25.42;;;21.10;99.90;;;;;;5012547;28;20174;-58
2022/04/16 09:07:57;;;;;;;39.17;24.50;;;21.10;99.90;;;;;;5013451;28;20257;-59
2022/04/16 09:10:28;;;;;;;39.75;25.70;;;21.20;99.90;;;;;;5013360;28;20193;-59
2022/04/16 09:12:56;;;;;;;34.38;25.02;;;21.20;99.90;;;;;;5013185;28;20167;-59
2022/04/16 09:15:24;;;;;;;32.78;23.48;;;21.10;99.90;;;;;;5013151;28;20213;-59
2022/04/16 09:18:04;;;;;;;37.20;25.80;;;20.50;99.90;;;;;;5012915;28;20174;-59
2022/04/16 09:20:35;;;;;;;41.20;27.48;;;20.00;99.90;;;;;;5012816;28;20249;-58
2022/04/16 09:23:02;;;;;;;42.92;26.88;;;19.10;99.90;;;;;;5013277;28;20289;-59
2022/04/16 09:25:30;;;;;;;42.95;26.55;;;20.70;99.90;;;;;;5012834;28;20206;-59
2022/04/16 09:27:56;;;;;;;39.97;25.77;;;21.40;99.90;;;;;;5012702;28;20166;-59
2022/04/16 09:30:23;;;;;;;37.95;24.67;;;22.60;99.90;;;;;;5012400;28;20233;-59
2022/04/16 09:32:49;;;;;;;36.50;24.52;;;22.20;99.90;;;;;;5012463;28;20645;-58
2022/04/16 09:35:31;;;;;;;39.00;27.42;;;22.80;99.90;;;;;;5012903;28;20166;-58
2022/04/16 09:37:59;;;;;;;39.00;26.75;;;23.20;99.90;;;;;;5012726;28;20217;-58
2022/04/16 09:40:26;;;;;;;40.90;27.52;;;23.50;99.90;;;;;;5012599;28;20220;-58
2022/04/16 09:42:56;;;;;;;41.55;29.50;;;24.00;99.90;;;;;;5012726;28;20174;-59
2022/04/16 09:45:22;;;;;;;39.28;28.30;;;24.20;99.90;;;;;;5012458;28;20232;-59
2022/04/16 09:47:50;;;;;;;43.28;28.83;;;24.10;99.90;;;;;;5012576;28;20182;-59
2022/04/16 09:50:21;;;;;;;44.58;29.40;;;23.10;99.90;;;;;;5012422;28;20175;-59
2022/04/16 09:56:11;;;;;;;46.17;29.77;;;22.20;99.90;;;;;;5012615;28;20181;-59
2022/04/16 09:58:40;;;;;;;45.42;31.05;;;22.10;99.90;;;;;;5011780;28;20178;-59
2022/04/16 10:01:09;;;;;;;47.15;31.83;;;22.50;99.90;;;;;;5012304;28;20764;-59
2022/04/16 10:03:35;;;;;;;46.83;31.77;;;22.20;99.90;;;;;;5012170;28;20251;-60
2022/04/16 10:06:01;;;;;;;45.85;32.45;;;22.30;99.90;;;;;;5012257;28;20261;-59
2022/04/16 10:08:28;;;;;;;49.85;31.80;;;22.40;99.90;;;;;;5012416;28;20170;-59
2022/04/16 10:10:55;;;;;;;50.40;33.03;;;22.80;99.90;;;;;;5010927;28;20214;-59
2022/04/16 10:13:22;;;;;;;48.03;32.17;;;22.10;99.90;;;;;;5012183;28;20167;-59
2022/04/16 10:15:57;;;;;;;47.10;31.85;;;21.80;99.90;;;;;;5012153;28;20251;-59
2022/04/16 10:18:23;;;;;;;50.33;34.65;;;21.70;99.90;;;;;;5011782;28;20175;-59
2022/04/16 10:20:50;;;;;;;47.60;33.00;;;21.20;99.90;;;;;;5011905;28;20555;-59
2022/04/16 10:23:31;;;;;;;51.00;33.03;;;21.30;99.90;;;;;;5011793;28;20170;-59
2022/04/16 10:26:11;;;;;;;52.13;34.83;;;22.50;99.90;;;;;;5011896;28;20181;-59
2022/04/16 10:28:43;;;;;;;55.63;34.78;;;21.90;99.90;;;;;;5011759;28;20162;-59
2022/04/16 10:31:22;;;;;;;48.67;33.17;;;21.40;99.90;;;;;;5011500;28;20525;-59
2022/04/16 10:34:05;;;;;;;46.97;32.97;;;21.60;99.90;;;;;;5011544;28;20182;-59
2022/04/16 10:36:36;;;;;;;50.17;33.70;;;20.20;99.90;;;;;;5011691;28;20253;-59
2022/04/16 10:39:17;;;;;;;48.30;32.35;;;21.00;99.90;;;;;;5011582;28;20182;-59
2022/04/16 10:42:00;;;;;;;48.38;32.47;;;21.60;99.90;;;;;;5011853;28;20217;-59
2022/04/16 10:44:27;;;;;;;51.22;33.85;;;22.50;99.90;;;;;;5011339;28;20690;-59
2022/04/16 10:46:54;;;;;;;53.50;34.47;;;22.60;99.90;;;;;;5011425;28;20166;-59
2022/04/16 10:49:24;;;;;;;45.15;31.98;;;22.50;99.90;;;;;;5011369;28;20182;-59
2022/04/16 10:51:52;;;;;;;48.80;32.25;;;22.70;99.90;;;;;;5011194;28;20170;-59
2022/04/16 10:54:34;;;;;;;46.38;31.13;;;23.90;99.90;;;;;;5011112;28;20662;-59
2022/04/16 10:57:01;;;;;;;46.63;31.75;;;24.50;99.90;;;;;;5011148;28;20171;-60
2022/04/16 10:59:41;;;;;;;44.08;30.55;;;25.20;99.90;;;;;;5011160;28;20167;-59
2022/04/16 11:02:19;;;;;;;39.60;29.90;;;24.90;99.90;;;;;;5011001;28;20166;-59
2022/04/16 11:04:58;;;;;;;43.25;28.88;;;24.70;99.90;;;;;;5011155;28;20254;-60
2022/04/16 11:07:26;;;;;;;41.00;30.30;;;23.90;99.90;;;;;;5010961;28;20206;-60
2022/04/16 11:09:52;;;;;;;44.95;29.35;;;23.10;99.90;;;;;;5010831;28;20173;-60
2022/04/16 11:12:22;;;;;;;41.33;28.55;;;22.70;99.90;;;;;;5010971;28;20178;-60
2022/04/16 11:14:52;;;;;;;37.00;27.38;;;22.70;99.90;;;;;;5010933;28;20181;-59
2022/04/16 11:17:21;;;;;;;38.58;27.38;;;23.70;99.90;;;;;;5010799;28;20213;-59
2022/04/16 11:20:04;;;;;;;42.13;26.10;;;23.30;99.90;;;;;;5010819;28;20201;-63
2022/04/16 11:22:30;;;;;;;34.72;24.98;;;23.90;99.90;;;;;;5010924;28;20170;-60
2022/04/16 11:25:00;;;;;;;32.03;24.05;;;25.30;99.90;;;;;;5010665;28;20266;-60
2022/04/16 11:36:05;;;;;;;29.13;22.83;;;24.60;99.90;;;;;;5010775;28;20723;-60
2022/04/16 11:38:33;;;;;;;30.60;23.58;;;25.20;99.90;;;;;;5010575;28;20186;-59
2022/04/16 11:41:00;;;;;;;29.35;22.58;;;25.00;99.90;;;;;;5010394;28;20555;-59
2022/04/16 11:43:28;;;;;;;32.55;25.17;;;25.50;99.90;;;;;;5010501;28;20268;-59
2022/04/16 11:45:55;;;;;;;32.72;23.27;;;24.90;99.90;;;;;;5008903;28;20267;-59
2022/04/16 11:48:22;;;;;;;31.25;22.25;;;24.60;99.90;;;;;;5010317;28;20663;-59
2022/04/16 11:50:48;;;;;;;28.77;22.05;;;25.70;99.90;;;;;;5010651;28;20261;-59
2022/04/16 11:53:14;;;;;;;26.55;21.63;;;27.40;99.90;;;;;;5010507;28;20787;-59
2022/04/16 11:55:48;;;;;;;23.55;18.40;;;25.70;99.90;;;;;;5010391;28;20182;-60
2022/04/16 11:58:14;;;;;;;21.88;16.80;;;26.20;99.90;;;;;;5010396;28;20261;-59
2022/04/16 12:00:55;;;;;;;29.25;17.75;;;25.00;99.90;;;;;;5010280;28;20260;-59
2022/04/16 12:03:41;;;;;;;21.85;16.33;;;24.90;99.90;;;;;;5010603;28;20173;-59
2022/04/16 12:06:10;;;;;;;21.25;15.50;;;24.70;99.90;;;;;;5009876;28;20223;-60
2022/04/16 12:08:36;;;;;;;22.45;15.85;;;25.70;99.90;;;;;;5010232;28;20621;-59
2022/04/16 12:11:03;;;;;;;23.83;15.50;;;25.20;99.90;;;;;;5010584;28;20650;-59
2022/04/16 12:13:36;;;;;;;23.10;16.88;;;25.20;99.90;;;;;;5010108;28;20209;-59
2022/04/16 12:16:07;;;;;;;23.00;14.38;;;26.40;99.90;;;;;;5010087;28;20178;-59
2022/04/16 12:18:38;;;;;;;20.33;14.13;;;26.30;99.90;;;;;;5010135;28;20174;-59
2022/04/16 12:21:12;;;;;;;22.38;15.93;;;25.50;99.90;;;;;;5009794;28;20226;-59
2022/04/16 12:23:38;;;;;;;23.42;16.60;;;24.80;99.90;;;;;;5009919;28;20173;-59
2022/04/16 12:26:05;;;;;;;25.95;17.02;;;24.00;99.90;;;;;;5009930;28;20232;-58
2022/04/16 12:28:36;;;;;;;26.92;16.27;;;24.50;99.90;;;;;;5010143;28;20174;-58
2022/04/16 12:31:02;;;;;;;18.92;11.50;;;24.80;99.90;;;;;;5010037;28;20175;-59
2022/04/16 12:33:28;;;;;;;15.50;11.18;;;25.20;99.90;;;;;;5010060;28;20242;-58
2022/04/16 12:35:56;;;;;;;14.98;10.27;;;25.40;99.90;;;;;;5009837;28;20274;-59
2022/04/16 12:38:23;;;;;;;16.98;12.35;;;26.10;99.90;;;;;;5010111;28;20249;-59
2022/04/16 12:40:49;;;;;;;15.95;11.10;;;25.70;99.90;;;;;;5010193;28;20225;-59
2022/04/16 12:43:16;;;;;;;20.80;12.73;;;25.40;99.90;;;;;;5013824;28;20167;-58
2022/04/16 12:45:43;;;;;;;18.55;11.55;;;25.60;99.90;;;;;;5013599;28;20285;-58
2022/04/16 12:48:09;;;;;;;19.42;11.93;;;25.40;99.90;;;;;;5013487;28;20584;-58
2022/04/16 12:50:35;;;;;;;22.92;16.15;;;25.40;99.90;;;;;;5013630;28;20262;-58
2022/04/16 12:53:03;;;;;;;23.80;15.60;;;25.50;99.90;;;;;;5013177;28;20222;-59
2022/04/16 12:55:29;;;;;;;23.38;16.08;;;24.30;99.90;;;;;;5013453;28;20293;-59
2022/04/16 12:57:56;;;;;;;21.73;14.70;;;25.40;99.90;;;;;;5013587;28;20532;-59
2022/04/16 13:00:22;;;;;;;20.10;15.43;;;25.60;99.90;;;;;;5013463;28;20313;-58
2022/04/16 13:02:48;;;;;;;22.88;15.05;;;25.70;99.90;;;;;;5013312;28;20278;-59